Time;durP1;ratioP1;P1;durP2;ratioP2;P2;SDS_P1;SDS_P2;PMS_P1;PMS_P2;Temp;Humidity;BMP_temperature;BMP_pressure;BME280_temperature;BME280_humidity;BME280_pressure;Samples;Min_cycle;Max_cycle;Signal;HPM_P1;HPM_P2
2023/12/07 00:00:50;;;;;;;24.20;12.10;;;;;;;;;;6279500;22;20193;-86
2023/12/07 00:03:36;;;;;;;17.63;10.57;;;;;;;;;;6291764;22;20419;-87
2023/12/07 00:06:20;;;;;;;14.13;12.07;;;;;;;;;;6291735;22;20411;-87
2023/12/07 00:09:00;;;;;;;13.60;10.17;;;;;;;;;;6282787;22;20415;-86
2023/12/07 00:11:40;;;;;;;12.13;10.13;;;;;;;;;;6283854;22;20423;-86
2023/12/07 00:14:22;;;;;;;13.90;10.50;;;;;;;;;;6286618;22;20442;-88
2023/12/07 00:17:05;;;;;;;14.97;10.77;;;;;;;;;;6281640;22;20400;-87
2023/12/07 00:19:50;;;;;;;15.63;11.70;;;;;;;;;;6283020;22;20411;-89
2023/12/07 00:22:30;;;;;;;14.80;11.73;;;;;;;;;;6279600;22;20407;-86
2023/12/07 00:28:05;;;;;;;18.67;12.30;;;;;;;;;;6278961;22;20420;-87
2023/12/07 00:30:38;;;;;;;15.77;11.80;;;;;;;;;;6279511;22;20453;-87
2023/12/07 00:33:22;;;;;;;21.03;12.80;;;;;;;;;;6278902;22;20746;-86
2023/12/07 00:35:50;;;;;;;18.90;12.40;;;;;;;;;;6279304;22;20534;-90
2023/12/07 00:38:24;;;;;;;20.53;12.60;;;;;;;;;;6280339;22;20434;-86
2023/12/07 00:41:04;;;;;;;15.70;11.17;;;;;;;;;;6280345;22;20435;-88
2023/12/07 00:43:37;;;;;;;18.87;12.83;;;;;;;;;;6279386;22;20403;-88
2023/12/07 00:46:14;;;;;;;17.07;12.27;;;;;;;;;;6280610;22;20426;-88
2023/12/07 00:48:46;;;;;;;15.95;11.50;;;;;;;;;;6279485;22;20412;-87
2023/12/07 00:51:32;;;;;;;14.83;12.60;;;;;;;;;;6281478;22;20211;-87
2023/12/07 00:54:04;;;;;;;15.60;11.20;;;;;;;;;;6276129;22;20475;-86
2023/12/07 00:56:37;;;;;;;15.07;11.00;;;;;;;;;;6284135;22;20465;-87
2023/12/07 00:59:07;;;;;;;14.13;10.53;;;;;;;;;;6278515;22;20425;-88
2023/12/07 01:01:40;;;;;;;12.97;10.60;;;;;;;;;;6284210;22;20627;-87
2023/12/07 01:04:27;;;;;;;17.20;11.40;;;;;;;;;;6281758;22;21031;-87
2023/12/07 01:07:07;;;;;;;13.90;10.40;;;;;;;;;;6278896;22;20453;-85
2023/12/07 01:09:40;;;;;;;15.57;11.93;;;;;;;;;;6282438;22;20449;-88
2023/12/07 01:12:22;;;;;;;20.30;11.40;;;;;;;;;;6283172;22;20572;-88
2023/12/07 01:14:53;;;;;;;18.93;12.33;;;;;;;;;;6281858;22;20497;-88
2023/12/07 01:17:33;;;;;;;16.73;12.00;;;;;;;;;;6280205;22;20387;-86
2023/12/07 01:20:00;;;;;;;19.07;13.20;;;;;;;;;;6276293;22;20442;-88
2023/12/07 01:22:32;;;;;;;15.10;12.00;;;;;;;;;;6233601;22;20948;-86
2023/12/07 01:24:59;;;;;;;17.50;12.00;;;;;;;;;;6193041;23;20491;-86
2023/12/07 01:27:35;;;;;;;15.87;11.47;;;;;;;;;;6195024;23;20420;-88
2023/12/07 01:30:05;;;;;;;22.33;13.60;;;;;;;;;;6193423;23;20467;-89
2023/12/07 01:32:36;;;;;;;17.00;11.37;;;;;;;;;;6193633;23;20440;-87
2023/12/07 01:35:06;;;;;;;20.83;13.43;;;;;;;;;;6193178;23;20946;-88
2023/12/07 01:37:35;;;;;;;17.87;12.90;;;;;;;;;;6175257;23;20437;-88
2023/12/07 01:40:10;;;;;;;19.57;12.90;;;;;;;;;;6172555;23;20440;-89
2023/12/07 01:42:38;;;;;;;17.63;12.97;;;;;;;;;;6198127;23;20417;-87
2023/12/07 01:45:14;;;;;;;20.63;13.70;;;;;;;;;;6194766;23;20439;-87
2023/12/07 01:47:42;;;;;;;25.37;13.30;;;;;;;;;;6199674;23;20401;-87
2023/12/07 01:50:24;;;;;;;19.90;13.90;;;;;;;;;;6201538;23;20428;-87
2023/12/07 01:53:03;;;;;;;16.87;13.57;;;;;;;;;;6196192;23;20416;-87
2023/12/07 01:55:39;;;;;;;18.50;13.47;;;;;;;;;;6174956;23;20441;-87
2023/12/07 01:58:14;;;;;;;17.45;12.98;;;;;;;;;;6195981;23;20412;-88
2023/12/07 02:00:54;;;;;;;15.70;12.88;;;;;;;;;;6222183;23;20554;-87
2023/12/07 02:03:32;;;;;;;17.47;11.20;;;;;;;;;;6199119;23;20208;-86
2023/12/07 02:06:10;;;;;;;19.53;12.70;;;;;;;;;;6197498;23;20424;-87
2023/12/07 02:08:43;;;;;;;16.57;11.70;;;;;;;;;;6196560;23;20401;-87
2023/12/07 02:11:17;;;;;;;18.53;11.83;;;;;;;;;;6201398;22;20433;-89
2023/12/07 02:14:02;;;;;;;17.13;11.37;;;;;;;;;;6199423;23;20405;-88
2023/12/07 02:16:45;;;;;;;19.25;12.07;;;;;;;;;;6172863;23;20981;-87
2023/12/07 02:19:21;;;;;;;16.57;12.40;;;;;;;;;;6225227;23;20153;-88
2023/12/07 02:22:06;;;;;;;20.60;12.03;;;;;;;;;;6194512;23;20446;-88
2023/12/07 02:24:34;;;;;;;21.03;13.07;;;;;;;;;;6199418;23;20941;-87
2023/12/07 02:27:21;;;;;;;18.87;12.80;;;;;;;;;;6158451;23;20469;-87
2023/12/07 02:29:52;;;;;;;15.80;12.68;;;;;;;;;;6199532;23;20415;-87
2023/12/07 02:32:48;;;;;;;15.43;12.07;;;;;;;;;;6208716;23;20232;-86
2023/12/07 02:35:16;;;;;;;14.15;11.57;;;;;;;;;;6208426;23;20400;-87
2023/12/07 02:37:54;;;;;;;19.85;12.63;;;;;;;;;;6211217;23;20190;-87
2023/12/07 02:40:25;;;;;;;17.00;11.83;;;;;;;;;;6208411;23;20213;-87
2023/12/07 02:42:57;;;;;;;19.15;12.60;;;;;;;;;;6206364;23;20463;-90
2023/12/07 02:45:29;;;;;;;22.83;12.93;;;;;;;;;;6206490;23;20174;-88
2023/12/07 02:48:26;;;;;;;18.40;12.53;;;;;;;;;;6204959;23;20404;-86
2023/12/07 02:51:08;;;;;;;18.10;12.40;;;;;;;;;;6180712;23;20457;-86
2023/12/07 02:53:46;;;;;;;16.87;13.17;;;;;;;;;;6174183;23;20535;-87
2023/12/07 02:56:24;;;;;;;15.83;11.77;;;;;;;;;;6179133;22;20432;-87
2023/12/07 02:59:02;;;;;;;14.90;11.47;;;;;;;;;;6196956;23;20496;-89
2023/12/07 03:01:33;;;;;;;14.23;11.63;;;;;;;;;;6196619;23;20436;-87
2023/12/07 03:04:13;;;;;;;24.70;12.70;;;;;;;;;;6195325;23;20400;-90
2023/12/07 03:07:09;;;;;;;18.95;11.65;;;;;;;;;;6192953;23;20413;-86
2023/12/07 03:09:50;;;;;;;15.60;11.43;;;;;;;;;;6196210;23;20189;-89
2023/12/07 03:12:25;;;;;;;14.77;11.85;;;;;;;;;;6205013;23;20404;-88
2023/12/07 03:15:00;;;;;;;13.83;10.83;;;;;;;;;;6202305;23;20178;-86
2023/12/07 03:17:30;;;;;;;14.87;11.03;;;;;;;;;;6192307;23;20445;-86
2023/12/07 03:20:13;;;;;;;20.50;12.80;;;;;;;;;;6192388;23;20432;-86
2023/12/07 03:22:44;;;;;;;17.23;11.67;;;;;;;;;;6191525;23;20451;-87
2023/12/07 03:25:16;;;;;;;14.88;10.70;;;;;;;;;;6192669;23;20466;-88
2023/12/07 03:27:51;;;;;;;15.05;10.70;;;;;;;;;;6193460;23;20173;-86
2023/12/07 03:30:24;;;;;;;16.37;12.43;;;;;;;;;;6192994;23;20201;-87
2023/12/07 03:32:59;;;;;;;11.30;9.50;;;;;;;;;;6201114;22;20411;-88
2023/12/07 03:35:32;;;;;;;15.90;10.82;;;;;;;;;;6204997;23;20411;-87
2023/12/07 03:38:14;;;;;;;16.90;11.20;;;;;;;;;;6205513;23;20190;-86
2023/12/07 03:40:47;;;;;;;16.93;11.37;;;;;;;;;;6205320;23;20213;-84
2023/12/07 03:43:22;;;;;;;13.37;10.47;;;;;;;;;;6203111;23;20476;-88
2023/12/07 03:46:05;;;;;;;13.83;10.30;;;;;;;;;;6195107;23;21156;-88
2023/12/07 03:48:44;;;;;;;13.90;11.00;;;;;;;;;;6191380;23;20409;-85
2023/12/07 03:51:18;;;;;;;15.75;12.00;;;;;;;;;;6194668;23;20452;-87
2023/12/07 03:53:50;;;;;;;17.80;11.40;;;;;;;;;;6192596;23;20177;-90
2023/12/07 03:56:33;;;;;;;16.20;10.95;;;;;;;;;;6194808;23;20466;-87
2023/12/07 03:59:07;;;;;;;14.00;9.67;;;;;;;;;;6192936;23;20640;-88
2023/12/07 04:01:45;;;;;;;15.77;10.80;;;;;;;;;;6191875;23;20438;-88
2023/12/07 04:04:19;;;;;;;15.40;11.37;;;;;;;;;;6191248;23;20165;-88
2023/12/07 04:06:52;;;;;;;16.23;11.17;;;;;;;;;;6191382;23;20421;-89
2023/12/07 04:09:37;;;;;;;15.00;11.33;;;;;;;;;;6192338;23;20416;-87
2023/12/07 04:12:19;;;;;;;18.43;11.03;;;;;;;;;;6193011;23;20466;-87
2023/12/07 04:14:55;;;;;;;17.77;11.67;;;;;;;;;;6191714;23;20411;-88
2023/12/07 04:17:35;;;;;;;14.23;9.73;;;;;;;;;;6198446;22;20479;-87
2023/12/07 04:20:14;;;;;;;13.07;9.80;;;;;;;;;;6192469;23;20448;-87
2023/12/07 04:22:52;;;;;;;12.85;9.90;;;;;;;;;;6206390;22;20435;-88
2023/12/07 04:25:27;;;;;;;13.67;10.43;;;;;;;;;;6207254;22;20302;-86
2023/12/07 04:28:02;;;;;;;10.73;9.30;;;;;;;;;;6210008;22;20439;-88
2023/12/07 04:30:36;;;;;;;13.80;10.53;;;;;;;;;;6209595;22;20421;-86
2023/12/07 04:33:12;;;;;;;11.10;9.73;;;;;;;;;;6207339;23;20428;-88
2023/12/07 04:35:49;;;;;;;12.67;9.43;;;;;;;;;;6200048;23;20466;-87
2023/12/07 04:38:32;;;;;;;;;;;;;;;;;;;;;
2023/12/07 04:41:11;;;;;;;11.07;9.13;;;;;;;;;;6217551;23;20436;-87
2023/12/07 04:43:40;;;;;;;13.17;8.90;;;;;;;;;;6189689;23;20413;-87
2023/12/07 04:46:13;;;;;;;16.83;9.90;;;;;;;;;;6191473;23;20448;-87
2023/12/07 04:48:47;;;;;;;13.90;10.63;;;;;;;;;;6218230;23;20440;-90
2023/12/07 04:51:19;;;;;;;12.50;9.03;;;;;;;;;;6195622;23;20440;-87
2023/12/07 04:53:54;;;;;;;12.47;9.03;;;;;;;;;;6189848;23;20421;-88
2023/12/07 04:56:40;;;;;;;12.40;8.65;;;;;;;;;;6192210;23;20480;-88
2023/12/07 04:59:21;;;;;;;12.65;9.65;;;;;;;;;;6188715;23;20188;-87
2023/12/07 05:01:51;;;;;;;12.50;9.30;;;;;;;;;;6190200;23;20269;-88
2023/12/07 05:04:28;;;;;;;12.37;7.90;;;;;;;;;;6191046;23;20444;-88
2023/12/07 05:07:03;;;;;;;8.97;8.10;;;;;;;;;;6194690;23;20973;-88
2023/12/07 05:09:44;;;;;;;11.33;9.07;;;;;;;;;;6202001;23;20698;-85
2023/12/07 05:12:14;;;;;;;12.70;8.80;;;;;;;;;;6199895;23;20766;-88
2023/12/07 05:15:00;;;;;;;12.10;8.70;;;;;;;;;;6221097;23;20427;-88
2023/12/07 05:17:41;;;;;;;12.48;8.30;;;;;;;;;;6193641;23;20455;-88
2023/12/07 05:20:12;;;;;;;10.83;8.43;;;;;;;;;;6218262;23;20233;-86
2023/12/07 05:22:43;;;;;;;12.13;8.50;;;;;;;;;;6199716;23;20428;-89
2023/12/07 05:25:14;;;;;;;13.37;9.00;;;;;;;;;;6200179;23;20428;-89
2023/12/07 05:27:48;;;;;;;11.40;7.87;;;;;;;;;;6196706;23;20419;-89
2023/12/07 05:30:17;;;;;;;11.57;8.30;;;;;;;;;;6220209;23;20439;-89
2023/12/07 05:32:51;;;;;;;13.77;8.83;;;;;;;;;;6190881;23;20417;-88
2023/12/07 05:35:20;;;;;;;15.98;9.15;;;;;;;;;;6190253;23;20450;-88
2023/12/07 05:37:53;;;;;;;13.90;9.10;;;;;;;;;;6192062;23;20309;-85
2023/12/07 05:40:23;;;;;;;11.37;8.60;;;;;;;;;;6190983;23;20439;-85
2023/12/07 05:43:05;;;;;;;12.00;8.97;;;;;;;;;;6193684;23;20464;-87
2023/12/07 05:45:35;;;;;;;11.07;8.30;;;;;;;;;;6194590;22;20401;-89
2023/12/07 05:48:15;;;;;;;12.33;9.43;;;;;;;;;;6204201;23;20416;-88
2023/12/07 05:50:46;;;;;;;11.57;8.77;;;;;;;;;;6204460;23;20498;-89
2023/12/07 05:53:24;;;;;;;;;;;;;;;;;;;;;
2023/12/07 05:56:16;;;;;;;8.00;7.00;;;;;;;;;;6220572;22;20455;-86
2023/12/07 05:58:56;;;;;;;11.93;7.63;;;;;;;;;;6188755;23;20409;-86
2023/12/07 06:01:37;;;;;;;12.90;8.75;;;;;;;;;;6185493;23;20440;-85
2023/12/07 06:04:16;;;;;;;10.33;6.80;;;;;;;;;;6178761;23;20177;-86
2023/12/07 06:06:54;;;;;;;11.60;7.33;;;;;;;;;;6189749;23;20408;-91
2023/12/07 06:09:38;;;;;;;10.67;7.90;;;;;;;;;;6187637;23;20397;-86
2023/12/07 06:15:12;;;;;;;11.17;7.37;;;;;;;;;;6213241;23;20397;-85
2023/12/07 06:17:49;;;;;;;11.03;8.20;;;;;;;;;;6187840;23;20514;-86
2023/12/07 06:20:20;;;;;;;11.93;7.63;;;;;;;;;;6187567;23;20433;-88
2023/12/07 06:22:48;;;;;;;10.93;7.73;;;;;;;;;;6191933;23;20408;-88
2023/12/07 06:25:16;;;;;;;10.37;7.10;;;;;;;;;;6195165;23;20420;-87
2023/12/07 06:27:44;;;;;;;11.20;7.00;;;;;;;;;;6190461;23;20677;-88
2023/12/07 06:30:11;;;;;;;11.83;8.27;;;;;;;;;;6189041;23;20486;-87
2023/12/07 06:35:17;;;;;;;12.30;7.83;;;;;;;;;;6208018;22;20429;-87
2023/12/07 06:37:49;;;;;;;10.63;8.03;;;;;;;;;;6255305;22;20440;-88
2023/12/07 06:40:17;;;;;;;14.13;8.10;;;;;;;;;;6275360;22;20473;-86
2023/12/07 06:42:48;;;;;;;14.03;8.50;;;;;;;;;;6296616;22;20398;-87
2023/12/07 06:45:17;;;;;;;12.00;9.53;;;;;;;;;;6299305;22;20426;-86
2023/12/07 06:47:50;;;;;;;10.63;7.67;;;;;;;;;;6271028;22;20399;-86
2023/12/07 06:50:18;;;;;;;11.70;7.80;;;;;;;;;;6256156;22;20431;-88
2023/12/07 06:52:47;;;;;;;14.93;9.73;;;;;;;;;;6257533;22;20411;-86
2023/12/07 06:55:17;;;;;;;11.37;8.10;;;;;;;;;;6256323;22;20473;-86
2023/12/07 06:57:45;;;;;;;13.40;7.90;;;;;;;;;;6256700;22;20442;-89
2023/12/07 07:00:13;;;;;;;11.80;7.67;;;;;;;;;;6283254;22;20441;-88
2023/12/07 07:02:49;;;;;;;12.17;8.40;;;;;;;;;;6281757;22;20481;-87
2023/12/07 07:05:20;;;;;;;15.27;8.70;;;;;;;;;;6256124;22;20418;-85
2023/12/07 07:07:51;;;;;;;11.40;8.47;;;;;;;;;;6208689;22;20207;-89
2023/12/07 07:10:25;;;;;;;9.10;5.67;;;;;;;;;;6196065;23;20439;-88
2023/12/07 07:12:53;;;;;;;13.17;8.53;;;;;;;;;;6192869;23;20452;-86
2023/12/07 07:15:27;;;;;;;16.27;9.82;;;;;;;;;;6200707;23;20475;-88
2023/12/07 07:17:56;;;;;;;17.03;8.03;;;;;;;;;;6220300;23;20197;-89
2023/12/07 07:20:26;;;;;;;12.93;8.77;;;;;;;;;;6193355;23;20911;-88
2023/12/07 07:23:00;;;;;;;15.60;8.97;;;;;;;;;;6194625;23;20448;-89
2023/12/07 07:25:45;;;;;;;9.10;6.70;;;;;;;;;;6197190;23;20413;-87
2023/12/07 07:28:21;;;;;;;11.57;7.00;;;;;;;;;;6210324;23;20412;-85
2023/12/07 07:30:53;;;;;;;11.10;8.60;;;;;;;;;;6207559;22;20468;-89
2023/12/07 07:33:24;;;;;;;10.60;8.50;;;;;;;;;;6208944;23;20591;-88
2023/12/07 07:35:56;;;;;;;16.47;9.40;;;;;;;;;;6207970;23;20427;-87
2023/12/07 07:38:28;;;;;;;15.83;8.63;;;;;;;;;;6183234;23;20470;-89
2023/12/07 07:40:58;;;;;;;13.40;8.53;;;;;;;;;;6252897;22;21052;-88
2023/12/07 07:43:30;;;;;;;19.10;9.23;;;;;;;;;;6251216;23;20413;-87
2023/12/07 07:45:58;;;;;;;14.03;8.13;;;;;;;;;;6222496;23;20466;-85
2023/12/07 07:48:30;;;;;;;13.70;8.87;;;;;;;;;;6220353;23;20476;-88
2023/12/07 07:50:58;;;;;;;9.90;7.30;;;;;;;;;;6221271;23;20432;-89
2023/12/07 07:53:28;;;;;;;12.23;9.27;;;;;;;;;;6222640;23;20416;-87
2023/12/07 07:55:56;;;;;;;13.97;9.33;;;;;;;;;;6223359;23;20416;-87
2023/12/07 07:58:26;;;;;;;16.00;8.60;;;;;;;;;;6223823;23;20447;-90
2023/12/07 08:00:57;;;;;;;13.03;8.03;;;;;;;;;;6224968;23;20484;-87
2023/12/07 08:03:27;;;;;;;16.13;9.60;;;;;;;;;;6222036;23;20447;-87
2023/12/07 08:05:57;;;;;;;16.05;10.25;;;;;;;;;;6220895;23;20419;-87
2023/12/07 08:08:26;;;;;;;16.20;9.50;;;;;;;;;;6221050;23;20267;-86
2023/12/07 08:10:56;;;;;;;9.87;7.23;;;;;;;;;;6221632;23;20779;-88
2023/12/07 08:13:24;;;;;;;15.63;10.13;;;;;;;;;;6249439;23;20426;-89
2023/12/07 08:15:52;;;;;;;12.30;9.27;;;;;;;;;;6221733;23;20416;-88
2023/12/07 08:18:27;;;;;;;14.40;10.07;;;;;;;;;;6223726;23;20440;-88
2023/12/07 08:20:55;;;;;;;16.00;9.27;;;;;;;;;;6224157;23;20448;-87
2023/12/07 08:23:23;;;;;;;15.03;10.07;;;;;;;;;;6224731;23;20416;-88
2023/12/07 08:25:51;;;;;;;11.73;8.30;;;;;;;;;;6227508;23;20439;-87
2023/12/07 08:28:27;;;;;;;10.67;8.20;;;;;;;;;;6233286;23;20523;-88
2023/12/07 08:30:56;;;;;;;11.93;8.63;;;;;;;;;;6247227;22;20494;-86
2023/12/07 08:33:24;;;;;;;16.60;9.30;;;;;;;;;;6218134;23;20507;-87
2023/12/07 08:35:54;;;;;;;13.23;8.80;;;;;;;;;;6218627;23;20481;-87
2023/12/07 08:38:23;;;;;;;12.47;10.10;;;;;;;;;;6222149;23;20440;-87
2023/12/07 08:40:51;;;;;;;12.83;9.50;;;;;;;;;;6246843;22;20511;-88
2023/12/07 08:43:22;;;;;;;15.73;10.10;;;;;;;;;;6220189;23;20407;-88
2023/12/07 08:45:53;;;;;;;16.20;12.50;;;;;;;;;;6220173;23;20392;-88
2023/12/07 08:48:26;;;;;;;14.80;9.80;;;;;;;;;;6220564;23;20440;-87
2023/12/07 08:50:54;;;;;;;16.37;10.43;;;;;;;;;;6219943;23;20490;-88
2023/12/07 08:53:21;;;;;;;12.50;8.87;;;;;;;;;;6219614;23;20435;-87
2023/12/07 08:55:51;;;;;;;16.42;9.82;;;;;;;;;;6245840;23;20423;-87
2023/12/07 08:58:21;;;;;;;15.87;10.10;;;;;;;;;;6229847;23;20228;-88
2023/12/07 09:00:50;;;;;;;16.77;11.70;;;;;;;;;;6232616;23;20434;-86
2023/12/07 09:03:20;;;;;;;13.93;9.60;;;;;;;;;;6227283;23;20415;-86
2023/12/07 09:05:49;;;;;;;16.53;10.37;;;;;;;;;;6221437;23;20430;-87
2023/12/07 09:08:17;;;;;;;13.53;9.43;;;;;;;;;;6223046;23;20432;-87
2023/12/07 09:10:44;;;;;;;14.33;9.23;;;;;;;;;;6221538;23;20515;-88
2023/12/07 09:13:15;;;;;;;12.43;9.40;;;;;;;;;;6224714;23;20472;-89
2023/12/07 09:15:43;;;;;;;18.00;10.63;;;;;;;;;;6232771;23;20436;-87
2023/12/07 09:18:13;;;;;;;17.37;10.43;;;;;;;;;;6222509;23;20823;-87
2023/12/07 09:20:45;;;;;;;14.00;9.57;;;;;;;;;;6218548;23;20459;-86
2023/12/07 09:23:16;;;;;;;15.50;9.43;;;;;;;;;;6210605;23;20449;-87
2023/12/07 09:25:46;;;;;;;16.87;9.13;;;;;;;;;;6209148;23;20400;-88
2023/12/07 09:28:16;;;;;;;15.93;10.70;;;;;;;;;;6217336;23;20419;-87
2023/12/07 09:30:43;;;;;;;16.40;11.03;;;;;;;;;;6215015;23;20848;-87
2023/12/07 09:33:11;;;;;;;11.95;8.10;;;;;;;;;;6214393;23;20495;-86
2023/12/07 09:35:51;;;;;;;14.30;8.82;;;;;;;;;;6244355;23;20212;-85
2023/12/07 09:38:21;;;;;;;13.23;9.10;;;;;;;;;;6217170;23;20185;-85
2023/12/07 09:40:52;;;;;;;12.17;9.47;;;;;;;;;;6219037;23;20436;-86
2023/12/07 09:43:20;;;;;;;13.10;9.10;;;;;;;;;;6217850;23;20392;-86
2023/12/07 09:45:51;;;;;;;14.07;9.77;;;;;;;;;;6221452;23;20400;-87
2023/12/07 09:48:19;;;;;;;12.77;9.60;;;;;;;;;;6220435;23;20509;-87
2023/12/07 09:50:47;;;;;;;15.68;10.20;;;;;;;;;;6218745;23;20437;-88
2023/12/07 09:53:16;;;;;;;13.00;8.97;;;;;;;;;;6219750;23;20232;-87
2023/12/07 09:56:19;;;;;;;12.60;9.23;;;;;;;;;;6222963;23;20432;-88
2023/12/07 09:59:00;;;;;;;15.83;9.47;;;;;;;;;;6221406;23;20439;-87
2023/12/07 10:01:40;;;;;;;10.40;8.30;;;;;;;;;;6230431;23;20434;-87
2023/12/07 10:04:30;;;;;;;18.63;10.77;;;;;;;;;;6253871;23;20423;-87
2023/12/07 10:06:58;;;;;;;12.47;8.73;;;;;;;;;;6222914;23;20408;-86
2023/12/07 10:09:28;;;;;;;10.80;8.70;;;;;;;;;;6223814;23;20412;-88
2023/12/07 10:12:04;;;;;;;12.53;8.37;;;;;;;;;;6248187;22;20435;-87
2023/12/07 10:14:32;;;;;;;13.60;9.37;;;;;;;;;;6219624;23;20377;-90
2023/12/07 10:17:00;;;;;;;13.52;10.38;;;;;;;;;;6220255;23;20756;-90
2023/12/07 10:19:30;;;;;;;10.23;7.67;;;;;;;;;;6223115;23;20185;-86
2023/12/07 10:21:59;;;;;;;14.73;9.45;;;;;;;;;;6248995;22;20459;-86
2023/12/07 10:24:32;;;;;;;11.48;8.50;;;;;;;;;;6249142;23;20176;-86
2023/12/07 10:27:06;;;;;;;14.10;9.50;;;;;;;;;;6226728;23;20172;-86
2023/12/07 10:29:36;;;;;;;13.93;9.73;;;;;;;;;;6237847;22;20451;-85
2023/12/07 10:32:04;;;;;;;13.53;9.50;;;;;;;;;;6239401;22;20427;-85
2023/12/07 10:34:34;;;;;;;8.57;7.40;;;;;;;;;;6240378;22;20479;-88
2023/12/07 10:37:07;;;;;;;15.93;10.07;;;;;;;;;;6237806;23;20405;-87
2023/12/07 10:39:35;;;;;;;12.90;9.73;;;;;;;;;;6226632;23;20455;-86
2023/12/07 10:42:03;;;;;;;12.43;9.10;;;;;;;;;;6226814;23;20430;-86
2023/12/07 10:44:35;;;;;;;12.63;8.53;;;;;;;;;;6224368;23;20420;-87
2023/12/07 10:47:10;;;;;;;12.83;8.30;;;;;;;;;;6252477;23;20408;-87
2023/12/07 10:49:41;;;;;;;9.95;7.35;;;;;;;;;;6226478;22;20578;-87
2023/12/07 10:52:16;;;;;;;12.77;8.10;;;;;;;;;;6224534;23;20200;-87
2023/12/07 10:54:57;;;;;;;7.70;5.97;;;;;;;;;;6224649;23;20411;-87
2023/12/07 10:57:27;;;;;;;11.20;8.03;;;;;;;;;;6225083;23;20411;-87
2023/12/07 10:59:57;;;;;;;11.83;7.87;;;;;;;;;;6249744;22;20396;-87
2023/12/07 11:02:37;;;;;;;10.07;6.70;;;;;;;;;;6225002;23;20446;-88
2023/12/07 11:05:07;;;;;;;13.07;8.47;;;;;;;;;;6250449;23;20411;-87
2023/12/07 11:07:57;;;;;;;13.30;9.07;;;;;;;;;;6215844;23;20420;-85
2023/12/07 11:10:33;;;;;;;9.50;7.82;;;;;;;;;;6221764;23;20419;-88
2023/12/07 11:13:03;;;;;;;11.87;9.20;;;;;;;;;;6224630;23;20165;-86
2023/12/07 11:15:31;;;;;;;12.77;7.30;;;;;;;;;;6224674;23;20409;-86
2023/12/07 11:18:04;;;;;;;11.70;7.77;;;;;;;;;;6252931;23;20515;-85
2023/12/07 11:20:44;;;;;;;11.67;7.87;;;;;;;;;;6232274;23;20428;-87
2023/12/07 11:23:20;;;;;;;11.20;8.33;;;;;;;;;;6232995;23;20404;-88
2023/12/07 11:25:52;;;;;;;14.30;9.13;;;;;;;;;;6231540;23;20439;-87
2023/12/07 11:28:43;;;;;;;11.33;8.50;;;;;;;;;;6254350;23;20403;-88
2023/12/07 11:31:11;;;;;;;13.00;9.40;;;;;;;;;;6222855;23;20493;-85
2023/12/07 11:33:40;;;;;;;13.53;10.50;;;;;;;;;;6224872;23;20424;-86
2023/12/07 11:36:10;;;;;;;14.60;9.57;;;;;;;;;;6250835;23;20416;-87
2023/12/07 11:39:08;;;;;;;13.70;8.70;;;;;;;;;;6226510;23;20455;-86
2023/12/07 11:41:44;;;;;;;11.07;8.13;;;;;;;;;;6188123;23;20438;-87
2023/12/07 11:44:14;;;;;;;11.70;7.67;;;;;;;;;;6224122;23;20440;-87
2023/12/07 11:46:48;;;;;;;10.57;8.20;;;;;;;;;;6249266;23;20456;-86
2023/12/07 11:49:20;;;;;;;11.30;7.30;;;;;;;;;;6224568;23;20488;-86
2023/12/07 11:51:57;;;;;;;10.37;8.57;;;;;;;;;;6224842;23;20458;-88
2023/12/07 11:54:25;;;;;;;13.50;8.23;;;;;;;;;;6222807;23;20420;-87
2023/12/07 11:56:53;;;;;;;10.27;7.20;;;;;;;;;;6252833;23;20877;-88
2023/12/07 11:59:21;;;;;;;11.73;8.40;;;;;;;;;;6247669;23;20440;-86
2023/12/07 12:01:57;;;;;;;13.77;8.83;;;;;;;;;;6228626;23;20820;-87
2023/12/07 12:04:25;;;;;;;11.27;9.03;;;;;;;;;;6225066;23;20400;-85
2023/12/07 12:06:54;;;;;;;12.17;7.90;;;;;;;;;;6252474;23;20404;-87
2023/12/07 12:09:27;;;;;;;10.47;8.00;;;;;;;;;;6252492;23;20400;-85
2023/12/07 12:12:01;;;;;;;11.23;8.83;;;;;;;;;;6252991;22;20438;-86
2023/12/07 12:14:32;;;;;;;11.20;7.53;;;;;;;;;;6228514;23;20421;-86
2023/12/07 12:17:03;;;;;;;10.40;8.00;;;;;;;;;;6229103;23;20165;-86
2023/12/07 12:19:35;;;;;;;11.27;7.73;;;;;;;;;;6226785;23;20448;-87
2023/12/07 12:22:04;;;;;;;9.70;7.00;;;;;;;;;;6237369;23;20387;-86
2023/12/07 12:24:39;;;;;;;11.17;7.93;;;;;;;;;;6235629;23;20454;-87
2023/12/07 12:27:17;;;;;;;8.67;7.70;;;;;;;;;;6232400;23;20427;-87
2023/12/07 12:29:50;;;;;;;11.80;8.83;;;;;;;;;;6254409;22;20515;-88
2023/12/07 12:32:20;;;;;;;7.17;6.40;;;;;;;;;;6255033;23;20807;-86
2023/12/07 12:34:52;;;;;;;7.60;6.60;;;;;;;;;;6229458;23;20420;-88
2023/12/07 12:37:23;;;;;;;7.80;7.00;;;;;;;;;;6228874;23;20551;-86
2023/12/07 12:39:54;;;;;;;10.10;6.90;;;;;;;;;;6229144;22;20447;-86
2023/12/07 12:42:25;;;;;;;10.73;7.23;;;;;;;;;;6238996;23;20404;-86
2023/12/07 12:44:58;;;;;;;9.03;7.13;;;;;;;;;;6261961;23;20424;-87
2023/12/07 12:47:29;;;;;;;12.33;8.40;;;;;;;;;;6232321;23;20401;-88
2023/12/07 12:50:00;;;;;;;11.10;7.70;;;;;;;;;;6235468;22;20972;-87
2023/12/07 12:52:51;;;;;;;10.00;7.70;;;;;;;;;;6236097;23;20530;-87
2023/12/07 12:55:31;;;;;;;11.87;8.60;;;;;;;;;;6234796;23;20416;-87
2023/12/07 12:58:07;;;;;;;10.80;6.80;;;;;;;;;;6213809;23;20418;-88
2023/12/07 13:00:50;;;;;;;11.03;7.03;;;;;;;;;;6242290;23;20423;-86
2023/12/07 13:03:35;;;;;;;9.83;6.60;;;;;;;;;;6246746;23;20416;-88
2023/12/07 13:06:07;;;;;;;8.70;5.97;;;;;;;;;;6242985;23;20407;-88
2023/12/07 13:08:37;;;;;;;8.00;7.00;;;;;;;;;;6271833;22;20435;-87
2023/12/07 13:11:23;;;;;;;8.97;7.17;;;;;;;;;;6247823;22;20427;-87
2023/12/07 13:13:57;;;;;;;8.40;6.57;;;;;;;;;;6247153;22;20403;-88
2023/12/07 13:16:33;;;;;;;7.80;6.63;;;;;;;;;;6247857;22;20428;-89
2023/12/07 13:19:07;;;;;;;10.70;6.87;;;;;;;;;;6246145;22;20455;-89
2023/12/07 13:21:52;;;;;;;7.67;6.57;;;;;;;;;;6242057;23;20539;-86
2023/12/07 13:24:22;;;;;;;9.73;6.93;;;;;;;;;;6232891;23;20808;-86
2023/12/07 13:26:53;;;;;;;6.93;5.00;;;;;;;;;;6231538;23;20416;-86
2023/12/07 13:29:23;;;;;;;14.27;8.43;;;;;;;;;;6231418;23;20885;-85
2023/12/07 13:32:05;;;;;;;11.33;8.10;;;;;;;;;;6233901;23;20458;-87
2023/12/07 13:34:37;;;;;;;12.43;8.13;;;;;;;;;;6233000;23;20462;-87
2023/12/07 13:37:05;;;;;;;6.73;5.57;;;;;;;;;;6233747;23;20519;-87
2023/12/07 13:39:52;;;;;;;8.40;6.57;;;;;;;;;;6235353;22;20440;-88
2023/12/07 13:42:22;;;;;;;8.30;6.97;;;;;;;;;;6231366;23;20408;-87
2023/12/07 13:45:00;;;;;;;11.37;6.20;;;;;;;;;;6233382;23;20407;-87
2023/12/07 13:47:37;;;;;;;11.37;7.10;;;;;;;;;;6234524;23;20400;-88
2023/12/07 13:50:08;;;;;;;11.27;7.57;;;;;;;;;;6256660;23;20438;-87
2023/12/07 13:52:42;;;;;;;11.63;6.13;;;;;;;;;;6232515;23;20447;-86
2023/12/07 13:55:15;;;;;;;9.87;7.40;;;;;;;;;;6232376;23;20905;-87
2023/12/07 13:57:52;;;;;;;6.60;5.77;;;;;;;;;;6231382;23;20494;-88
2023/12/07 14:00:22;;;;;;;10.13;7.40;;;;;;;;;;6230000;23;20538;-86
2023/12/07 14:03:12;;;;;;;6.90;6.20;;;;;;;;;;6195496;23;20190;-86
2023/12/07 14:05:39;;;;;;;9.37;6.43;;;;;;;;;;6193666;23;20406;-87
2023/12/07 14:08:12;;;;;;;11.90;6.30;;;;;;;;;;6195849;23;20489;-87
2023/12/07 14:10:43;;;;;;;9.60;6.45;;;;;;;;;;6194398;23;20441;-88
2023/12/07 14:13:25;;;;;;;7.77;6.57;;;;;;;;;;6202629;23;20162;-88
2023/12/07 14:15:57;;;;;;;11.83;6.33;;;;;;;;;;6204374;23;20480;-88
2023/12/07 14:18:38;;;;;;;8.30;5.80;;;;;;;;;;6198173;23;20496;-87
2023/12/07 14:21:05;;;;;;;7.43;4.13;;;;;;;;;;6223376;23;20447;-87
2023/12/07 14:23:44;;;;;;;8.47;6.30;;;;;;;;;;6235121;23;20408;-86
2023/12/07 14:26:17;;;;;;;10.07;6.77;;;;;;;;;;6233514;23;20410;-88
2023/12/07 14:28:47;;;;;;;10.53;7.20;;;;;;;;;;6257995;23;20410;-86
2023/12/07 14:31:16;;;;;;;7.53;6.07;;;;;;;;;;6257849;22;20484;-87
2023/12/07 14:33:47;;;;;;;8.65;6.43;;;;;;;;;;6230862;23;20410;-88
2023/12/07 14:36:16;;;;;;;7.40;6.60;;;;;;;;;;6256336;23;20173;-87
2023/12/07 14:38:46;;;;;;;8.07;6.93;;;;;;;;;;6230964;23;20499;-88
2023/12/07 14:41:16;;;;;;;6.83;5.67;;;;;;;;;;6229602;23;20432;-87
2023/12/07 14:43:46;;;;;;;9.43;6.13;;;;;;;;;;6233536;23;20854;-86
2023/12/07 14:46:13;;;;;;;9.65;7.25;;;;;;;;;;6232468;23;20778;-86
2023/12/07 14:48:42;;;;;;;10.40;7.87;;;;;;;;;;6235917;23;20177;-88
2023/12/07 14:51:21;;;;;;;8.87;6.17;;;;;;;;;;6236075;23;20428;-87
2023/12/07 14:53:50;;;;;;;10.30;6.30;;;;;;;;;;6235620;23;20483;-87
2023/12/07 14:56:26;;;;;;;11.23;7.27;;;;;;;;;;6211630;23;20384;-86
2023/12/07 14:58:58;;;;;;;12.30;7.17;;;;;;;;;;6260443;23;20443;-87
2023/12/07 15:01:25;;;;;;;8.80;6.83;;;;;;;;;;6236545;23;20424;-87
2023/12/07 15:03:55;;;;;;;7.63;6.20;;;;;;;;;;6242123;23;20414;-87
2023/12/07 15:06:24;;;;;;;11.27;7.72;;;;;;;;;;6264893;23;20198;-87
2023/12/07 15:08:56;;;;;;;11.23;7.07;;;;;;;;;;6234578;23;20189;-88
2023/12/07 15:11:24;;;;;;;8.50;6.30;;;;;;;;;;6234722;23;20464;-87
2023/12/07 15:13:52;;;;;;;9.70;6.27;;;;;;;;;;6236520;23;20492;-88
2023/12/07 15:16:19;;;;;;;11.30;6.80;;;;;;;;;;6265981;23;20424;-87